Time;durP1;ratioP1;P1;durP2;ratioP2;P2;SDS_P1;SDS_P2;PMS_P1;PMS_P2;Temp;Humidity;BMP_temperature;BMP_pressure;BME280_temperature;BME280_humidity;BME280_pressure;Samples;Min_cycle;Max_cycle;Signal;HPM_P1;HPM_P2
2022/12/27 00:01:17;;;;;;;17.98;8.75;;;;;;;7.43;100.00;99062.22;4378833;32;20507;-96
2022/12/27 00:03:44;;;;;;;15.63;7.97;;;;;;;7.63;100.00;99071.19;4366341;32;20103;-96
2022/12/27 00:06:15;;;;;;;12.95;7.40;;;;;;;7.81;100.00;99069.88;4366462;32;20112;-96
2022/12/27 00:08:43;;;;;;;13.88;6.50;;;;;;;7.97;100.00;99061.75;4379883;32;20102;-96
2022/12/27 00:11:13;;;;;;;11.05;5.75;;;;;;;8.17;100.00;99060.28;4363592;32;20173;-96
2022/12/27 00:13:41;;;;;;;10.98;5.82;;;;;;;8.39;100.00;99057.81;4359839;32;20095;-95
2022/12/27 00:16:10;;;;;;;11.25;5.37;;;;;;;8.55;100.00;99049.69;4363547;32;20126;-95
2022/12/27 00:18:39;;;;;;;9.43;5.03;;;;;;;8.62;100.00;99037.84;4378543;32;20469;-96
2022/12/27 00:21:07;;;;;;;8.75;5.32;;;;;;;8.72;100.00;99040.56;4366056;32;20115;-96
2022/12/27 00:23:38;;;;;;;11.15;5.43;;;;;;;8.70;100.00;99062.44;4365883;32;20471;-96
2022/12/27 00:26:17;;;;;;;12.65;6.62;;;;;;;8.75;100.00;99050.78;4353456;32;20109;-96
2022/12/27 00:28:44;;;;;;;8.23;5.10;;;;;;;8.83;100.00;99059.69;4364651;32;20138;-95
2022/12/27 00:31:13;;;;;;;12.18;5.90;;;;;;;8.88;100.00;99057.53;4379532;32;20444;-95
2022/12/27 00:33:42;;;;;;;7.70;5.03;;;;;;;8.88;100.00;99069.78;4365911;32;20808;-96
2022/12/27 00:36:13;;;;;;;7.05;4.45;;;;;;;8.92;100.00;99059.91;4379317;32;20090;-96
2022/12/27 00:38:40;;;;;;;8.45;4.82;;;;;;;8.96;100.00;99064.81;4365740;32;20134;-95
2022/12/27 00:41:08;;;;;;;8.68;4.43;;;;;;;9.01;100.00;99054.81;4366274;32;20132;-96
2022/12/27 00:43:35;;;;;;;7.12;4.32;;;;;;;9.01;100.00;99046.97;4373890;32;20113;-95
2022/12/27 00:46:03;;;;;;;8.30;4.50;;;;;;;9.00;100.00;99041.88;4380789;32;20137;-96
2022/12/27 00:48:31;;;;;;;8.77;4.57;;;;;;;9.01;100.00;99043.53;4380600;32;20103;-96
2022/12/27 00:51:00;;;;;;;8.23;4.93;;;;;;;8.99;100.00;99041.03;4368627;32;20489;-96
2022/12/27 00:53:30;;;;;;;11.85;4.82;;;;;;;8.99;100.00;99035.81;4380704;32;20145;-96
2022/12/27 00:55:57;;;;;;;8.43;4.47;;;;;;;8.84;100.00;99037.00;4380614;32;20564;-96
2022/12/27 00:58:25;;;;;;;7.22;4.53;;;;;;;8.85;100.00;99036.88;4368371;32;20111;-96
2022/12/27 01:00:52;;;;;;;10.25;4.55;;;;;;;8.83;100.00;99048.41;4380747;32;20365;-96
2022/12/27 01:03:19;;;;;;;7.65;4.47;;;;;;;8.80;100.00;99036.41;4392914;32;20121;-96
2022/12/27 01:05:47;;;;;;;9.05;3.42;;;;;;;8.83;100.00;99032.75;4368115;32;20170;-96
2022/12/27 01:08:14;;;;;;;7.62;3.85;;;;;;;8.84;100.00;99022.16;4368164;32;20460;-95
2022/12/27 01:10:41;;;;;;;10.45;4.65;;;;;;;8.88;100.00;99017.53;4393246;32;20122;-96
2022/12/27 01:13:08;;;;;;;5.90;3.17;;;;;;;8.92;100.00;99021.56;4357431;32;20148;-96
2022/12/27 01:15:36;;;;;;;6.20;3.62;;;;;;;8.95;100.00;99021.31;4394817;32;20078;-96
2022/12/27 01:18:03;;;;;;;8.18;3.97;;;;;;;8.90;100.00;99023.44;4369989;32;20125;-96
2022/12/27 01:20:30;;;;;;;7.50;4.20;;;;;;;8.90;100.00;99030.47;4394817;32;20740;-96
2022/12/27 01:22:58;;;;;;;6.97;3.97;;;;;;;8.85;100.00;99030.84;4369609;32;20086;-96
2022/12/27 01:25:25;;;;;;;10.57;4.37;;;;;;;8.82;100.00;99031.88;4382449;32;20112;-96
2022/12/27 01:27:52;;;;;;;6.93;3.87;;;;;;;8.83;100.00;99036.16;4382259;32;20102;-95
2022/12/27 01:30:20;;;;;;;6.15;3.55;;;;;;;8.84;100.00;99042.22;4357540;32;20129;-95
2022/12/27 01:32:47;;;;;;;6.32;3.80;;;;;;;8.87;100.00;99055.03;4369885;32;20456;-96
2022/12/27 01:35:14;;;;;;;7.35;3.55;;;;;;;8.84;100.00;99043.06;4369594;32;20089;-96
2022/12/27 01:37:41;;;;;;;9.38;4.32;;;;;;;8.83;100.00;99048.41;4382474;32;20110;-96
2022/12/27 01:40:09;;;;;;;8.80;3.95;;;;;;;8.84;100.00;99050.06;4370109;32;20129;-96
2022/12/27 01:42:51;;;;;;;6.72;4.07;;;;;;;8.83;100.00;99071.94;4382203;32;20090;-96
2022/12/27 01:45:31;;;;;;;6.85;3.62;;;;;;;8.76;100.00;99074.16;4395703;32;20077;-95
2022/12/27 01:48:20;;;;;;;8.88;4.45;;;;;;;8.72;100.00;99084.97;4382249;32;20165;-96
2022/12/27 01:50:54;;;;;;;9.30;4.75;;;;;;;8.67;100.00;99091.38;4382332;32;20170;-96
2022/12/27 01:53:24;;;;;;;9.70;4.45;;;;;;;8.62;100.00;99087.47;4382238;32;20121;-96
2022/12/27 01:56:14;;;;;;;10.35;4.28;;;;;;;8.56;100.00;99085.31;4369841;32;20102;-96
2022/12/27 01:58:55;;;;;;;7.25;3.92;;;;;;;8.58;100.00;99101.69;4393290;32;20094;-96
2022/12/27 02:01:26;;;;;;;7.40;4.57;;;;;;;8.50;100.00;99097.06;4380901;32;20118;-95
2022/12/27 02:03:59;;;;;;;8.52;4.43;;;;;;;8.55;100.00;99091.47;4393259;32;20122;-96
2022/12/27 02:06:28;;;;;;;9.73;5.32;;;;;;;8.43;100.00;99085.38;4393538;32;20469;-96
2022/12/27 02:08:58;;;;;;;10.65;5.70;;;;;;;8.30;100.00;99095.91;4380922;32;20114;-96
2022/12/27 02:14:21;;;;;;;12.57;5.85;;;;;;;8.21;100.00;99091.38;4393564;32;20538;-96
2022/12/27 02:16:56;;;;;;;10.20;5.25;;;;;;;8.19;100.00;99091.50;4393407;32;20112;-96
2022/12/27 02:19:50;;;;;;;9.52;4.93;;;;;;;8.22;100.00;99093.87;4380674;32;20133;-96
2022/12/27 02:24:01;;;;;;;7.45;4.50;;;;;;;8.17;100.00;99101.19;4380475;32;20132;-96
2022/12/27 02:25:42;;;;;;;8.10;4.18;;;;;;;8.24;100.00;99102.41;4393246;32;20113;-96
2022/12/27 02:28:18;;;;;;;7.78;4.18;;;;;;;8.26;100.00;99089.25;4393611;32;20176;-96
2022/12/27 02:30:47;;;;;;;9.65;4.05;;;;;;;8.24;100.00;99088.53;4393088;32;20110;-96
2022/12/27 02:33:19;;;;;;;6.47;3.67;;;;;;;8.28;100.00;99075.16;4368224;32;20111;-96
2022/12/27 02:35:54;;;;;;;8.73;4.10;;;;;;;8.31;100.00;99077.53;4389669;32;20112;-96
2022/12/27 02:38:34;;;;;;;6.22;3.67;;;;;;;8.27;100.00;99070.87;4381848;32;20109;-96
2022/12/27 02:53:03;;;;;;;5.37;2.55;;;;;;;8.31;100.00;99074.06;4381383;32;20218;-96
2022/12/27 02:55:39;;;;;;;5.62;2.60;;;;;;;8.34;100.00;99077.28;4383443;32;20115;-96
2022/12/27 02:58:17;;;;;;;6.47;2.95;;;;;;;8.35;100.00;99088.56;4395196;32;20439;-96
2022/12/27 03:03:55;;;;;;;4.68;2.60;;;;;;;8.39;100.00;99086.53;4395100;32;20094;-96
2022/12/27 03:06:58;;;;;;;5.40;2.70;;;;;;;8.42;100.00;99099.34;4369184;32;20113;-96
2022/12/27 03:15:56;;;;;;;7.20;2.45;;;;;;;8.41;100.00;99097.72;4348100;33;20546;-96
2022/12/27 03:18:26;;;;;;;5.05;2.53;;;;;;;8.37;100.00;99093.66;4359481;32;20133;-96
2022/12/27 03:26:32;;;;;;;7.87;2.85;;;;;;;8.12;100.00;99100.72;4362752;32;20467;-96
2022/12/27 03:34:42;;;;;;;6.03;2.95;;;;;;;7.64;100.00;99093.72;4362103;32;20095;-96
2022/12/27 03:40:38;;;;;;;8.95;3.12;;;;;;;7.45;100.00;99089.03;4362726;32;20133;-96
2022/12/27 03:43:12;;;;;;;5.32;3.03;;;;;;;7.32;100.00;99090.81;4347500;33;20157;-96
2022/12/27 03:48:32;;;;;;;5.68;2.95;;;;;;;7.29;100.00;99116.16;4362724;32;20091;-96
2022/12/27 03:51:03;;;;;;;6.68;3.47;;;;;;;7.24;100.00;99113.03;4362763;32;20211;-96
2022/12/27 03:53:46;;;;;;;6.87;3.60;;;;;;;7.20;100.00;99119.41;4350662;32;20127;-96
2022/12/27 03:56:13;;;;;;;7.00;3.95;;;;;;;7.11;100.00;99125.25;4362618;32;20186;-96
2022/12/27 03:58:41;;;;;;;8.00;3.97;;;;;;;7.13;100.00;99128.59;4350655;32;20131;-96
2022/12/27 04:01:08;;;;;;;5.30;3.42;;;;;;;7.12;100.00;99129.53;4350359;32;20175;-96
2022/12/27 04:03:36;;;;;;;7.40;4.20;;;;;;;7.05;100.00;99128.28;4350105;32;20090;-96
2022/12/27 04:06:03;;;;;;;6.57;3.85;;;;;;;7.02;100.00;99128.50;4350151;32;20082;-96
2022/12/27 04:36:11;;;;;;;6.82;3.37;;;;;;;6.50;100.00;99154.50;4393516;32;20163;-96
2022/12/27 04:38:39;;;;;;;7.00;3.62;;;;;;;6.50;100.00;99153.69;4368511;32;20098;-96
2022/12/27 04:55:16;;;;;;;4.80;2.20;;;;;;;7.58;100.00;99182.81;4382794;32;20107;-95
2022/12/27 04:57:43;;;;;;;5.57;2.35;;;;;;;7.68;100.00;99203.88;4355830;32;20090;-96
2022/12/27 05:02:58;;;;;;;5.03;2.35;;;;;;;7.71;100.00;99199.28;4384012;32;20106;-95
2022/12/27 05:05:26;;;;;;;4.85;2.62;;;;;;;7.60;100.00;99213.06;4380952;32;20111;-96
2022/12/27 05:16:13;;;;;;;5.37;3.10;;;;;;;7.34;100.00;99234.88;4370107;32;20498;-96
2022/12/27 05:18:41;;;;;;;6.53;3.00;;;;;;;7.18;100.00;99229.91;4355816;32;20121;-95
2022/12/27 05:21:08;;;;;;;5.82;3.30;;;;;;;7.19;100.00;99244.56;4380602;32;20082;-95
2022/12/27 05:26:35;;;;;;;5.68;3.10;;;;;;;7.14;100.00;99244.88;4370466;32;20550;-96
2022/12/27 05:29:02;;;;;;;5.80;3.53;;;;;;;7.14;100.00;99260.53;4396858;32;20086;-95
2022/12/27 05:31:30;;;;;;;7.68;4.15;;;;;;;7.06;100.00;99252.41;4393775;32;20162;-95
2022/12/27 05:33:57;;;;;;;4.68;3.05;;;;;;;7.03;100.00;99255.22;4367678;32;20166;-95
2022/12/27 05:36:26;;;;;;;6.43;3.60;;;;;;;6.95;100.00;99258.31;4380183;32;20182;-95
2022/12/27 05:38:53;;;;;;;5.55;3.20;;;;;;;6.95;100.00;99271.34;4379499;32;20549;-94
2022/12/27 05:41:20;;;;;;;7.60;3.70;;;;;;;6.90;100.00;99266.44;4367225;32;20415;-95
2022/12/27 05:43:48;;;;;;;10.63;4.30;;;;;;;6.86;100.00;99275.38;4367677;32;20492;-96
2022/12/27 05:46:18;;;;;;;6.82;3.70;;;;;;;6.86;100.00;99267.56;4392248;32;20114;-96
2022/12/27 05:48:46;;;;;;;6.55;3.67;;;;;;;6.79;100.00;99274.12;4355186;32;20124;-95
2022/12/27 05:51:19;;;;;;;7.40;3.87;;;;;;;6.77;100.00;99280.34;4367685;32;20086;-95
2022/12/27 05:53:47;;;;;;;7.65;4.45;;;;;;;6.78;100.00;99288.06;4379856;32;20109;-95
2022/12/27 05:56:18;;;;;;;7.70;4.03;;;;;;;6.86;100.00;99291.00;4379879;32;20168;-95
2022/12/27 05:58:46;;;;;;;7.90;4.37;;;;;;;6.80;100.00;99307.03;4381973;32;20121;-96
2022/12/27 06:01:15;;;;;;;7.75;3.83;;;;;;;6.72;100.00;99307.53;4369710;32;20109;-95
2022/12/27 06:03:43;;;;;;;8.88;4.25;;;;;;;6.64;100.00;99307.19;4382105;32;20407;-95
2022/12/27 06:06:11;;;;;;;7.95;4.57;;;;;;;6.58;100.00;99315.37;4369712;32;20106;-96
2022/12/27 06:08:38;;;;;;;8.18;3.70;;;;;;;6.61;100.00;99317.78;4382104;32;20510;-95
2022/12/27 06:11:07;;;;;;;7.40;4.35;;;;;;;6.57;100.00;99318.91;4382016;32;20522;-96
2022/12/27 06:13:36;;;;;;;8.98;4.43;;;;;;;6.59;100.00;99319.69;4381785;32;20118;-96
2022/12/27 06:19:34;;;;;;;7.85;4.37;;;;;;;6.67;100.00;99329.59;4395530;32;20146;-96
2022/12/27 06:22:01;;;;;;;9.27;4.75;;;;;;;6.62;100.00;99327.28;4369603;32;20166;-95
2022/12/27 06:24:29;;;;;;;7.10;4.30;;;;;;;6.54;100.00;99338.19;4381933;32;20140;-95
2022/12/27 06:26:56;;;;;;;6.97;4.10;;;;;;;6.55;100.00;99334.62;4369497;32;20125;-95
2022/12/27 06:32:54;;;;;;;6.82;3.58;;;;;;;6.44;100.00;99357.91;4395410;32;20109;-95
2022/12/27 06:35:21;;;;;;;7.35;3.65;;;;;;;6.32;100.00;99369.09;4369562;32;20141;-96
2022/12/27 06:37:49;;;;;;;7.30;3.60;;;;;;;6.24;100.00;99368.72;4357033;32;20271;-95
2022/12/27 06:40:17;;;;;;;6.12;3.83;;;;;;;6.26;100.00;99375.50;4369466;32;20201;-96
2022/12/27 06:42:44;;;;;;;5.78;3.00;;;;;;;6.20;100.00;99381.09;4357244;32;20109;-96
2022/12/27 06:45:11;;;;;;;4.45;2.72;;;;;;;6.13;100.00;99382.38;4369925;32;20118;-95
2022/12/27 06:47:39;;;;;;;4.97;2.47;;;;;;;6.27;100.00;99381.53;4369859;32;20106;-96
2022/12/27 06:50:07;;;;;;;4.45;2.50;;;;;;;6.28;100.00;99383.22;4369551;32;20824;-96
2022/12/27 06:52:35;;;;;;;3.92;2.55;;;;;;;6.31;100.00;99383.03;4369311;32;20086;-94
2022/12/27 06:55:02;;;;;;;3.35;2.50;;;;;;;6.44;100.00;99383.94;4362210;32;20604;-95
2022/12/27 06:57:30;;;;;;;7.07;2.45;;;;;;;6.60;100.00;99385.59;4381537;32;20141;-95
2022/12/27 06:59:57;;;;;;;5.12;2.47;;;;;;;6.62;100.00;99381.13;4382320;32;20103;-95
2022/12/27 07:02:24;;;;;;;4.97;2.47;;;;;;;6.65;100.00;99386.97;4381425;32;20564;-96
2022/12/27 07:04:52;;;;;;;4.22;2.35;;;;;;;6.65;100.00;99388.75;4381294;32;20137;-95
2022/12/27 07:07:19;;;;;;;6.37;2.58;;;;;;;6.66;100.00;99393.00;4381810;32;20102;-95
2022/12/27 07:09:46;;;;;;;4.78;2.22;;;;;;;6.69;100.00;99377.19;4381575;32;20098;-95
2022/12/27 07:12:14;;;;;;;3.80;2.20;;;;;;;6.70;100.00;99389.28;4381418;32;20652;-96
2022/12/27 07:14:41;;;;;;;5.15;1.75;;;;;;;6.82;100.00;99385.06;4393956;32;20106;-96
2022/12/27 07:17:09;;;;;;;3.08;2.08;;;;;;;6.84;100.00;99389.22;4381465;32;20107;-96
2022/12/27 07:19:36;;;;;;;3.55;1.80;;;;;;;6.83;100.00;99390.19;4381561;32;20089;-96
2022/12/27 07:22:03;;;;;;;4.12;2.22;;;;;;;6.86;100.00;99383.94;4394077;32;20099;-95
2022/12/27 07:24:32;;;;;;;3.87;1.90;;;;;;;6.89;100.00;99397.59;4381647;32;20114;-96
2022/12/27 07:27:00;;;;;;;4.82;2.22;;;;;;;6.94;100.00;99392.09;4393546;32;20122;-94
2022/12/27 07:29:28;;;;;;;5.20;2.85;;;;;;;7.03;100.00;99380.25;4394053;32;20751;-96
2022/12/27 07:31:58;;;;;;;4.45;2.50;;;;;;;6.98;100.00;99382.31;4369542;32;20086;-96
2022/12/27 07:37:32;;;;;;;3.03;1.77;;;;;;;7.04;100.00;99371.47;4394886;32;20149;-96
2022/12/27 07:39:59;;;;;;;2.65;1.75;;;;;;;7.15;100.00;99376.03;4381345;32;20086;-95
2022/12/27 07:42:28;;;;;;;4.40;2.15;;;;;;;7.23;100.00;99386.75;4393509;32;20086;-94
2022/12/27 07:44:55;;;;;;;2.90;1.70;;;;;;;7.22;100.00;99390.28;4393616;32;20130;-95
2022/12/27 07:47:22;;;;;;;2.10;1.37;;;;;;;7.22;100.00;99398.13;4368831;32;20589;-96
2022/12/27 07:49:50;;;;;;;1.40;1.00;;;;;;;7.35;100.00;99408.59;4380970;32;20091;-95
2022/12/27 07:52:17;;;;;;;2.72;0.90;;;;;;;7.40;100.00;99414.31;4393782;32;20432;-96
2022/12/27 07:54:44;;;;;;;1.20;0.62;;;;;;;7.49;100.00;99429.34;4368273;32;20114;-95
2022/12/27 07:57:12;;;;;;;2.22;1.00;;;;;;;7.52;100.00;99438.75;4393596;32;20118;-96
2022/12/27 07:59:39;;;;;;;1.70;1.05;;;;;;;7.54;100.00;99439.47;4374096;32;221879;-95
2022/12/27 08:02:08;;;;;;;2.35;1.00;;;;;;;7.57;100.00;99441.88;4369034;32;20082;-95
2022/12/27 08:04:37;;;;;;;1.33;0.93;;;;;;;7.59;100.00;99451.28;4369027;32;20129;-95
2022/12/27 08:07:09;;;;;;;1.67;0.95;;;;;;;7.66;100.00;99440.44;4380750;32;20521;-95
2022/12/27 08:09:38;;;;;;;1.80;1.15;;;;;;;7.70;100.00;99458.38;4368419;32;20098;-95
2022/12/27 08:12:06;;;;;;;2.92;1.33;;;;;;;7.71;100.00;99456.62;4381003;32;20404;-95
2022/12/27 08:14:33;;;;;;;2.67;1.08;;;;;;;7.67;100.00;99449.94;4380809;32;20122;-95
2022/12/27 08:17:04;;;;;;;2.60;1.33;;;;;;;7.74;100.00;99466.87;4393375;32;20186;-94
2022/12/27 08:19:32;;;;;;;1.48;0.90;;;;;;;7.75;100.00;99460.69;4392817;32;20106;-94
2022/12/27 08:21:59;;;;;;;3.37;1.08;;;;;;;7.77;100.00;99469.25;4393891;32;20120;-94
2022/12/27 08:24:26;;;;;;;2.75;1.02;;;;;;;7.77;100.00;99477.09;4394248;32;20136;-96
2022/12/27 08:26:53;;;;;;;5.87;1.23;;;;;;;7.82;100.00;99477.59;4368218;32;20118;-95
2022/12/27 08:29:21;;;;;;;2.03;1.05;;;;;;;7.69;100.00;99489.78;4381001;32;20451;-94
2022/12/27 08:31:48;;;;;;;4.10;1.02;;;;;;;7.72;100.00;99481.75;4380482;32;20160;-95
2022/12/27 08:34:15;;;;;;;2.47;1.15;;;;;;;7.85;100.00;99489.63;4355492;32;20463;-95
2022/12/27 08:36:43;;;;;;;0.55;0.52;;;;;;;7.84;100.00;99500.97;4368203;32;20144;-95
2022/12/27 08:39:21;;;;;;;2.08;0.90;;;;;;;7.92;100.00;99507.38;4394571;32;20455;-96
2022/12/27 08:41:51;;;;;;;1.55;1.00;;;;;;;8.04;100.00;99502.25;4355573;32;20109;-95
2022/12/27 08:44:18;;;;;;;1.23;0.68;;;;;;;8.03;100.00;99517.09;4368319;32;20102;-96
2022/12/27 08:46:53;;;;;;;1.37;0.60;;;;;;;8.03;100.00;99511.88;4368619;32;20749;-94
2022/12/27 08:49:20;;;;;;;;;;;;;;;8.08;100.00;99509.78;4380376;32;20102;-96
2022/12/27 08:51:48;;;;;;;0.45;0.20;;;;;;;7.91;100.00;99518.72;4368221;32;20045;-95
2022/12/27 08:54:15;;;;;;;0.50;0.30;;;;;;;7.82;100.00;99514.94;4394127;32;20103;-96
2022/12/27 08:56:43;;;;;;;0.10;0.10;;;;;;;7.82;100.00;99514.94;4368360;32;20122;-94
2022/12/27 08:59:11;;;;;;;0.77;0.40;;;;;;;7.81;100.00;99535.91;4367872;32;20117;-95
2022/12/27 09:01:38;;;;;;;0.93;0.30;;;;;;;7.79;100.00;99532.59;4367723;32;20102;-93
2022/12/27 09:04:05;;;;;;;0.20;0.20;;;;;;;7.79;100.00;99529.97;4380291;32;20506;-96
2022/12/27 09:06:33;;;;;;;0.25;0.22;;;;;;;7.76;100.00;99519.75;4368148;32;20559;-95
2022/12/27 09:09:02;;;;;;;0.20;0.20;;;;;;;7.88;100.00;99528.53;4368274;32;20116;-96
2022/12/27 09:11:32;;;;;;;0.88;0.30;;;;;;;7.84;100.00;99540.12;4368312;32;20141;-96
2022/12/27 09:14:02;;;;;;;1.37;0.20;;;;;;;7.78;100.00;99541.34;4368215;32;20122;-95
2022/12/27 09:16:29;;;;;;;0.30;0.30;;;;;;;7.84;99.63;99551.37;4367702;32;20552;-95
2022/12/27 09:18:57;;;;;;;0.40;0.30;;;;;;;7.67;97.86;99522.97;4380247;32;20090;-96
2022/12/27 09:21:28;;;;;;;0.50;0.20;;;;;;;7.73;99.17;99530.38;4367734;32;20083;-95
2022/12/27 09:23:55;;;;;;;0.52;0.32;;;;;;;7.67;97.27;99533.41;4380104;32;20102;-96
2022/12/27 09:26:27;;;;;;;0.30;0.20;;;;;;;7.70;96.09;99527.97;4367212;32;20144;-94
2022/12/27 09:28:55;;;;;;;0.65;0.32;;;;;;;7.63;94.58;99519.69;4367465;32;20102;-95
2022/12/27 09:31:23;;;;;;;0.35;0.30;;;;;;;7.72;94.74;99533.91;4379750;32;20116;-94
2022/12/27 09:33:51;;;;;;;0.30;0.17;;;;;;;7.68;92.86;99537.69;4394268;32;20116;-94
2022/12/27 09:36:21;;;;;;;0.35;0.25;;;;;;;7.58;89.75;99543.47;4368894;32;20164;-95
2022/12/27 09:38:51;;;;;;;0.75;0.28;;;;;;;7.56;87.23;99563.59;4368451;32;20125;-94
2022/12/27 09:41:40;;;;;;;1.48;0.30;;;;;;;7.64;86.02;99558.75;4368716;32;20462;-94
2022/12/27 09:44:55;;;;;;;1.67;0.40;;;;;;;7.53;84.08;99545.53;4383290;32;20174;-95
2022/12/27 09:47:28;;;;;;;0.47;0.20;;;;;;;7.63;83.55;99553.59;4381684;32;20117;-95
2022/12/27 09:50:15;;;;;;;0.62;0.22;;;;;;;7.53;80.61;99560.38;4381678;32;20470;-94
2022/12/27 09:52:55;;;;;;;1.00;0.40;;;;;;;7.44;77.71;99564.38;4381342;32;20086;-96
2022/12/27 09:55:34;;;;;;;0.30;0.30;;;;;;;7.45;76.63;99547.81;4356975;32;20123;-95
2022/12/27 09:58:32;;;;;;;0.52;0.50;;;;;;;7.36;78.71;99580.50;4393927;32;20180;-95
2022/12/27 10:01:00;;;;;;;1.20;0.73;;;;;;;7.43;78.11;99574.00;4369219;32;20095;-95
2022/12/27 10:03:29;;;;;;;1.35;0.50;;;;;;;7.38;79.09;99585.62;4357562;32;20129;-96
2022/12/27 10:06:35;;;;;;;0.75;0.47;;;;;;;7.30;78.14;99586.12;4369189;32;20114;-94
2022/12/27 10:09:18;;;;;;;5.18;0.70;;;;;;;7.31;79.49;99579.94;4380797;32;20157;-95
2022/12/27 10:11:49;;;;;;;0.60;0.40;;;;;;;7.36;78.78;99584.88;4383154;32;20121;-96
2022/12/27 10:14:26;;;;;;;1.80;0.60;;;;;;;7.18;77.65;99587.72;4394861;32;20128;-96
2022/12/27 10:17:17;;;;;;;1.15;0.32;;;;;;;7.01;77.64;99574.87;4382862;32;20132;-96
2022/12/27 10:20:06;;;;;;;1.75;0.40;;;;;;;6.87;77.97;99592.22;4369653;32;20140;-96
2022/12/27 10:22:46;;;;;;;0.35;0.35;;;;;;;6.74;78.83;99594.69;4369325;32;20107;-96
2022/12/27 10:25:17;;;;;;;1.02;0.50;;;;;;;6.72;80.63;99599.19;4382518;32;20082;-95
2022/12/27 10:31:18;;;;;;;1.83;0.50;;;;;;;6.98;80.24;99606.31;4395915;32;20132;-95
2022/12/27 10:33:47;;;;;;;1.10;0.45;;;;;;;7.04;81.08;99587.72;4369933;32;20163;-96
2022/12/27 10:36:17;;;;;;;1.33;0.40;;;;;;;7.27;81.34;99584.53;4369143;32;20565;-95
2022/12/27 10:38:45;;;;;;;0.95;0.40;;;;;;;7.17;80.70;99598.22;4381835;32;20118;-94
2022/12/27 10:41:29;;;;;;;2.40;0.60;;;;;;;7.12;79.59;99616.75;4369760;32;20124;-96
2022/12/27 10:43:57;;;;;;;1.02;0.55;;;;;;;7.02;80.94;99600.84;4394611;32;20094;-95
2022/12/27 10:46:26;;;;;;;0.60;0.40;;;;;;;6.98;82.58;99569.84;4356710;32;20125;-95
2022/12/27 10:49:19;;;;;;;0.88;0.50;;;;;;;7.05;82.09;99582.41;4381186;32;20125;-95
2022/12/27 10:51:50;;;;;;;0.30;0.30;;;;;;;7.01;83.95;99585.28;4369084;32;20132;-96
2022/12/27 10:54:26;;;;;;;0.70;0.62;;;;;;;7.02;82.28;99595.63;4381462;32;20136;-96
2022/12/27 10:56:55;;;;;;;0.57;0.43;;;;;;;6.95;82.35;99586.53;4369152;32;20078;-95
2022/12/27 10:59:26;;;;;;;1.80;0.60;;;;;;;6.99;78.58;99613.22;4381779;32;20074;-96
2022/12/27 11:02:01;;;;;;;0.50;0.35;;;;;;;7.02;80.24;99605.22;4370204;32;20415;-95
2022/12/27 11:04:31;;;;;;;0.55;0.37;;;;;;;7.10;79.05;99608.19;4366962;32;20112;-95
2022/12/27 11:07:02;;;;;;;3.40;0.60;;;;;;;7.01;74.68;99663.44;4365948;32;20197;-95
2022/12/27 11:09:42;;;;;;;0.37;0.35;;;;;;;7.02;74.33;99633.88;4379422;32;20137;-96
2022/12/27 11:12:23;;;;;;;0.93;0.65;;;;;;;7.10;73.83;99618.59;4355377;32;20094;-95
2022/12/27 11:14:58;;;;;;;1.35;0.50;;;;;;;7.00;73.54;99614.91;4366089;32;20145;-95
2022/12/27 11:17:29;;;;;;;0.73;0.30;;;;;;;7.06;74.49;99630.16;4342160;32;20549;-95
2022/12/27 11:19:57;;;;;;;0.60;0.40;;;;;;;7.05;76.16;99612.84;4378389;32;20448;-95
2022/12/27 11:22:25;;;;;;;3.90;0.70;;;;;;;6.86;76.27;99603.53;4379812;32;20161;-95
2022/12/27 11:24:56;;;;;;;2.60;0.70;;;;;;;6.90;79.53;99620.69;4378558;32;20124;-95
2022/12/27 11:27:25;;;;;;;1.05;0.52;;;;;;;6.95;79.48;99627.34;4366279;32;20094;-96
2022/12/27 11:29:57;;;;;;;1.58;0.50;;;;;;;6.77;77.49;99598.91;4379100;32;20150;-95
2022/12/27 11:32:24;;;;;;;2.97;0.80;;;;;;;6.77;75.86;99605.84;4366348;32;20491;-96
2022/12/27 11:34:53;;;;;;;0.88;0.45;;;;;;;6.63;76.19;99597.13;4366241;32;20153;-94
2022/12/27 11:37:23;;;;;;;0.90;0.70;;;;;;;6.66;75.83;99622.13;4353879;32;20106;-96
2022/12/27 11:40:10;;;;;;;1.00;0.68;;;;;;;6.61;78.00;99611.16;4366344;32;20134;-96
2022/12/27 11:42:44;;;;;;;1.67;0.40;;;;;;;6.80;78.71;99608.28;4353807;32;20149;-96
2022/12/27 11:45:18;;;;;;;0.60;0.40;;;;;;;6.75;73.81;99616.34;4379777;32;20131;-96
2022/12/27 11:47:52;;;;;;;2.17;0.62;;;;;;;6.72;75.02;99626.97;4378549;32;20095;-95
2022/12/27 11:50:25;;;;;;;0.52;0.45;;;;;;;6.73;72.37;99621.66;4378234;32;20098;-95
2022/12/27 11:53:08;;;;;;;1.98;0.40;;;;;;;6.62;71.07;99615.44;4379705;32;20106;-95
2022/12/27 11:56:04;;;;;;;2.17;0.70;;;;;;;6.63;71.66;99627.50;4377526;32;20124;-95
2022/12/27 11:58:37;;;;;;;2.12;1.17;;;;;;;6.67;69.75;99622.03;4318173;33;20120;-96
2022/12/27 12:01:53;;;;;;;0.25;0.20;;;;;;;6.57;66.17;99611.34;4305913;33;20113;-95
2022/12/27 12:04:42;;;;;;;1.52;0.45;;;;;;;6.52;63.56;99620.34;4306329;33;20898;-96
2022/12/27 12:07:09;;;;;;;0.37;0.37;;;;;;;6.51;65.49;99601.28;4294056;33;20117;-96
2022/12/27 12:10:14;;;;;;;3.80;0.88;;;;;;;6.52;66.21;99608.16;4294038;33;20481;-96
2022/12/27 12:12:47;;;;;;;0.82;0.60;;;;;;;6.65;67.24;99599.63;4305983;33;20104;-96
2022/12/27 12:15:32;;;;;;;1.00;0.57;;;;;;;6.49;65.33;99613.53;4306191;33;20100;-95
2022/12/27 12:18:15;;;;;;;0.50;0.40;;;;;;;6.55;65.84;99599.34;4293957;33;20096;-95
2022/12/27 12:20:46;;;;;;;1.67;0.90;;;;;;;6.35;65.81;99603.94;4305971;33;20100;-94
2022/12/27 12:23:20;;;;;;;0.87;0.43;;;;;;;6.37;67.10;99594.31;4318111;33;20175;-96
2022/12/27 12:26:03;;;;;;;1.62;0.40;;;;;;;6.37;66.85;99593.44;4306308;33;20112;-96
2022/12/27 12:28:42;;;;;;;0.40;0.37;;;;;;;6.33;64.37;99589.37;4306144;33;20100;-96
2022/12/27 12:31:36;;;;;;;1.52;0.70;;;;;;;6.17;64.51;99585.03;4308094;33;20092;-95
2022/12/27 12:34:13;;;;;;;0.40;0.35;;;;;;;6.01;65.10;99589.44;4294150;33;20630;-95
2022/12/27 12:36:50;;;;;;;1.30;0.55;;;;;;;5.90;65.89;99586.59;4361852;32;20160;-96
2022/12/27 12:39:33;;;;;;;1.27;0.60;;;;;;;5.97;66.18;99600.97;4364947;32;20094;-95
2022/12/27 12:42:16;;;;;;;2.60;0.55;;;;;;;5.95;65.07;99594.97;4365853;32;20086;-96
2022/12/27 12:44:58;;;;;;;0.57;0.33;;;;;;;5.80;64.63;99597.50;4365334;32;20114;-96
2022/12/27 12:47:45;;;;;;;0.32;0.30;;;;;;;5.84;64.50;99608.56;4353835;32;20184;-95
2022/12/27 12:50:45;;;;;;;1.17;0.50;;;;;;;5.64;64.80;99602.72;4365861;32;20149;-96
2022/12/27 12:53:53;;;;;;;1.75;0.70;;;;;;;5.62;63.63;99594.19;4317335;33;20088;-96
2022/12/27 12:56:41;;;;;;;12.10;4.62;;;;;;;5.67;63.81;99638.94;4317601;33;20112;-95
2022/12/27 12:59:22;;;;;;;2.03;0.80;;;;;;;5.62;64.35;99614.16;4305712;33;20108;-95
2022/12/27 13:02:18;;;;;;;0.60;0.50;;;;;;;5.59;65.29;99627.31;4305877;33;20414;-96
2022/12/27 13:05:23;;;;;;;0.55;0.50;;;;;;;5.60;65.96;99611.63;4296458;33;20406;-96
2022/12/27 13:08:12;;;;;;;2.25;0.60;;;;;;;5.56;66.15;99623.12;4300205;33;20304;-95
2022/12/27 13:10:58;;;;;;;1.17;0.50;;;;;;;5.43;65.54;99628.13;4323541;33;20438;-95
2022/12/27 13:13:50;;;;;;;0.60;0.40;;;;;;;5.40;66.61;99615.31;4322506;33;20091;-96
2022/12/27 13:16:39;;;;;;;0.98;0.43;;;;;;;5.38;66.43;99622.34;4298545;33;20088;-96
2022/12/27 13:19:40;;;;;;;1.10;0.60;;;;;;;5.40;67.32;99617.91;4310567;33;20135;-96
2022/12/27 13:22:16;;;;;;;1.00;0.60;;;;;;;5.42;66.46;99647.25;4298269;33;20520;-96
2022/12/27 13:24:52;;;;;;;2.00;0.82;;;;;;;5.35;66.09;99651.09;4298005;33;20118;-96
2022/12/27 13:27:47;;;;;;;1.83;0.60;;;;;;;5.24;64.15;99674.19;4298197;33;20212;-96
2022/12/27 13:30:14;;;;;;;1.52;0.60;;;;;;;5.24;64.75;99663.81;4336975;32;20169;-95
2022/12/27 13:33:05;;;;;;;2.55;0.57;;;;;;;5.28;65.07;99654.94;4369408;32;20441;-96
2022/12/27 13:35:53;;;;;;;1.55;0.62;;;;;;;5.19;65.92;99666.66;4383615;32;20159;-95
2022/12/27 13:38:37;;;;;;;1.08;0.50;;;;;;;5.15;66.14;99678.12;4382906;32;20086;-96
2022/12/27 13:41:31;;;;;;;1.27;0.60;;;;;;;5.19;66.79;99669.25;4369952;32;20094;-96
2022/12/27 13:44:27;;;;;;;0.75;0.50;;;;;;;5.12;65.55;99686.91;4358280;32;20115;-96
2022/12/27 13:47:03;;;;;;;6.22;0.82;;;;;;;5.08;66.13;99682.78;4357686;32;20478;-96
2022/12/27 13:49:37;;;;;;;1.62;0.65;;;;;;;5.02;67.04;99693.50;4382475;32;20109;-96
2022/12/27 13:52:08;;;;;;;;;;;;;;;5.00;67.50;99699.69;4357971;32;20115;-96
2022/12/27 13:54:51;;;;;;;38.22;11.98;;;;;;;4.96;68.49;99707.62;4370717;32;19998;-96
2022/12/27 13:57:24;;;;;;;17.67;6.25;;;;;;;4.92;69.05;99710.47;4369747;32;20086;-96